createdAt,value
2018-12-13T00:00:19.463Z,7.90
2018-12-13T00:01:19.551Z,7.10
2018-12-13T00:02:19.638Z,7.80
2018-12-13T00:03:19.727Z,7.60
2018-12-13T00:04:19.811Z,7.20
2018-12-13T00:05:19.902Z,7.40
2018-12-13T00:06:19.991Z,7.50
2018-12-13T00:07:20.082Z,7.40
2018-12-13T00:08:20.165Z,7.50
2018-12-13T00:09:20.252Z,7.40
2018-12-13T00:10:20.342Z,7.20
2018-12-13T00:11:20.425Z,7.30
2018-12-13T00:12:20.510Z,7.10
2018-12-13T00:13:20.598Z,7.50
2018-12-13T00:14:20.687Z,6.80
2018-12-13T00:15:20.778Z,6.60
2018-12-13T00:16:20.861Z,7.40
2018-12-13T00:17:20.946Z,7.80
2018-12-13T00:18:21.032Z,7.10
2018-12-13T00:19:21.121Z,6.60
2018-12-13T00:20:21.210Z,7.00
2018-12-13T00:21:21.297Z,7.70
2018-12-13T00:22:21.381Z,8.10
2018-12-13T00:23:21.467Z,7.30
2018-12-13T00:24:21.555Z,7.60
2018-12-13T00:25:21.642Z,7.50
2018-12-13T00:26:21.731Z,7.80
2018-12-13T00:27:21.817Z,7.80
2018-12-13T00:28:21.909Z,7.70
2018-12-13T00:29:21.999Z,7.70
2018-12-13T00:30:22.107Z,7.80
2018-12-13T00:31:22.193Z,7.70
2018-12-13T00:32:22.282Z,8.60
2018-12-13T00:33:22.370Z,7.80
2018-12-13T00:34:22.457Z,8.90
2018-12-13T00:35:22.543Z,8.30
2018-12-13T00:36:22.633Z,8.30
2018-12-13T00:37:22.720Z,9.30
2018-12-13T00:38:22.808Z,9.00
2018-12-13T00:39:22.895Z,8.90
2018-12-13T00:40:22.987Z,9.20
2018-12-13T00:41:23.075Z,8.90
2018-12-13T00:42:23.171Z,9.10
2018-12-13T00:43:23.247Z,8.80
2018-12-13T00:44:23.337Z,9.10
2018-12-13T00:45:23.423Z,8.80
2018-12-13T00:46:23.514Z,9.50
2018-12-13T00:47:23.599Z,9.80
2018-12-13T00:48:23.688Z,9.20
2018-12-13T00:49:23.781Z,9.10
2018-12-13T00:50:23.865Z,9.40
2018-12-13T00:51:23.951Z,9.30
2018-12-13T00:52:24.036Z,9.50
2018-12-13T00:53:24.124Z,9.30
2018-12-13T00:54:24.211Z,9.60
2018-12-13T00:55:24.298Z,9.60
2018-12-13T00:56:24.383Z,9.70
2018-12-13T00:57:24.474Z,9.90
2018-12-13T00:58:24.560Z,9.60
2018-12-13T00:59:24.644Z,9.60
2018-12-13T01:00:24.734Z,9.80
2018-12-13T01:01:24.859Z,9.50
2018-12-13T01:02:24.909Z,9.40
2018-12-13T01:03:24.997Z,9.40
2018-12-13T01:04:25.084Z,9.30
2018-12-13T01:05:25.174Z,9.60
2018-12-13T01:06:25.258Z,9.90
2018-12-13T01:07:25.346Z,10.20
2018-12-13T01:08:25.435Z,10.50
2018-12-13T01:09:25.536Z,10.70
2018-12-13T01:10:25.609Z,11.10
2018-12-13T01:11:25.696Z,10.40
2018-12-13T01:12:25.783Z,10.40
2018-12-13T01:13:25.884Z,10.60
2018-12-13T01:14:25.973Z,9.60
2018-12-13T01:15:26.060Z,10.20
2018-12-13T01:16:26.145Z,10.00
2018-12-13T01:17:26.234Z,9.90
2018-12-13T01:18:26.320Z,9.20
2018-12-13T01:19:26.406Z,10.00
2018-12-13T01:20:26.501Z,9.80
2018-12-13T01:21:26.582Z,10.20
2018-12-13T01:22:26.670Z,10.30
2018-12-13T01:23:26.760Z,10.40
2018-12-13T01:24:26.847Z,10.20
2018-12-13T01:25:26.934Z,9.80
2018-12-13T01:26:27.018Z,11.20
2018-12-13T01:27:27.104Z,11.00
2018-12-13T01:28:27.193Z,10.90
2018-12-13T01:29:27.279Z,10.80
2018-12-13T01:30:27.372Z,9.70
2018-12-13T01:31:27.454Z,10.10
2018-12-13T01:32:27.542Z,10.70
2018-12-13T01:33:27.627Z,11.00
2018-12-13T01:34:27.715Z,11.00
2018-12-13T01:35:27.799Z,10.90
2018-12-13T01:36:27.885Z,10.50
2018-12-13T01:37:27.973Z,10.90
2018-12-13T01:38:28.057Z,11.40
2018-12-13T01:39:28.143Z,11.00
2018-12-13T01:40:28.233Z,11.20
2018-12-13T01:41:28.320Z,10.90
2018-12-13T01:42:28.407Z,10.70
2018-12-13T01:43:28.497Z,10.20
2018-12-13T01:44:28.579Z,10.20
2018-12-13T01:45:28.667Z,10.60
2018-12-13T01:46:28.757Z,9.60
2018-12-13T01:47:28.848Z,10.50
2018-12-13T01:48:28.929Z,9.90
2018-12-13T01:49:29.016Z,10.50
2018-12-13T01:50:29.095Z,9.90
2018-12-13T01:51:29.195Z,10.50
2018-12-13T01:52:29.284Z,10.40
2018-12-13T01:53:29.370Z,10.20
2018-12-13T01:54:29.462Z,9.80
2018-12-13T01:55:29.546Z,9.50
2018-12-13T01:56:29.633Z,8.90
2018-12-13T01:57:29.724Z,9.30
2018-12-13T01:58:29.802Z,9.30
2018-12-13T01:59:29.890Z,9.00
2018-12-13T02:00:29.975Z,9.20
2018-12-13T02:01:30.062Z,9.50
2018-12-13T02:02:30.166Z,9.60
2018-12-13T02:03:30.251Z,9.30
2018-12-13T02:04:30.340Z,8.50
2018-12-13T02:05:30.423Z,8.70
2018-12-13T02:06:30.510Z,8.90
2018-12-13T02:07:30.594Z,9.10
2018-12-13T02:08:30.683Z,10.20
2018-12-13T02:09:30.770Z,9.60
2018-12-13T02:10:30.856Z,10.00
2018-12-13T02:11:30.944Z,9.80
2018-12-13T02:12:31.028Z,9.30
2018-12-13T02:13:31.115Z,9.20
2018-12-13T02:14:31.205Z,10.00
2018-12-13T02:15:31.294Z,10.00
2018-12-13T02:16:31.386Z,10.10
2018-12-13T02:17:31.468Z,9.90
2018-12-13T02:18:31.614Z,10.40
2018-12-13T02:19:31.647Z,10.00
2018-12-13T02:20:31.727Z,9.70
2018-12-13T02:21:31.813Z,10.10
2018-12-13T02:22:31.899Z,10.70
2018-12-13T02:23:31.986Z,9.80
2018-12-13T02:24:32.073Z,10.50
2018-12-13T02:25:32.161Z,9.90
2018-12-13T02:28:14.791Z,10.20
2018-12-13T02:29:14.881Z,10.50
2018-12-13T02:30:14.968Z,10.80
2018-12-13T02:31:15.053Z,10.70
2018-12-13T02:32:15.143Z,10.30
2018-12-13T02:33:15.227Z,10.50
2018-12-13T02:34:15.313Z,11.30
2018-12-13T02:35:15.400Z,10.90
2018-12-13T02:36:15.489Z,11.10
2018-12-13T02:37:15.572Z,10.70
2018-12-13T02:38:15.657Z,10.80
2018-12-13T02:39:15.750Z,10.80
2018-12-13T02:40:15.828Z,10.80
2018-12-13T02:41:15.915Z,11.80
2018-12-13T02:42:16.001Z,10.40
2018-12-13T02:43:16.093Z,11.00
2018-12-13T02:44:16.170Z,10.60
2018-12-13T02:45:16.256Z,10.40
2018-12-13T02:46:16.342Z,11.00
2018-12-13T02:47:16.428Z,10.80
2018-12-13T02:48:16.511Z,11.50
2018-12-13T02:49:16.605Z,9.80
2018-12-13T02:50:16.688Z,10.40
2018-12-13T02:51:16.773Z,10.30
2018-12-13T02:52:16.858Z,10.60
2018-12-13T02:53:16.943Z,11.20
2018-12-13T02:54:17.033Z,11.40
2018-12-13T02:55:17.121Z,10.90
2018-12-13T02:56:17.198Z,10.70
2018-12-13T02:57:17.291Z,10.70
2018-12-13T02:58:17.375Z,10.70
2018-12-13T02:59:17.467Z,11.00
2018-12-13T03:00:17.545Z,11.30
2018-12-13T03:01:17.633Z,10.50
2018-12-13T03:02:17.719Z,10.30
2018-12-13T03:03:17.814Z,10.80
2018-12-13T03:04:17.900Z,10.70
2018-12-13T03:05:17.985Z,11.10
2018-12-13T03:06:18.074Z,10.20
2018-12-13T03:07:18.167Z,10.70
2018-12-13T03:08:18.243Z,10.20
2018-12-13T03:09:18.333Z,10.70
2018-12-13T03:10:18.426Z,10.80
2018-12-13T03:11:18.505Z,11.50
2018-12-13T03:12:18.592Z,11.10
2018-12-13T03:13:18.680Z,10.90
2018-12-13T03:14:18.788Z,11.40
2018-12-13T03:15:18.879Z,11.40
2018-12-13T03:16:18.968Z,11.20
2018-12-13T03:17:19.056Z,12.00
2018-12-13T03:18:19.142Z,11.10
2018-12-13T03:19:19.227Z,11.50
2018-12-13T03:20:19.315Z,11.70
2018-12-13T03:21:19.410Z,11.80
2018-12-13T03:22:19.491Z,11.90
2018-12-13T03:23:19.575Z,12.20
2018-12-13T03:24:19.662Z,12.40
2018-12-13T03:25:19.750Z,12.40
2018-12-13T03:26:19.856Z,11.80
2018-12-13T03:27:19.922Z,11.40
2018-12-13T03:28:20.011Z,11.70
2018-12-13T03:29:20.101Z,10.50
2018-12-13T03:30:20.189Z,10.40
2018-12-13T03:31:20.273Z,11.30
2018-12-13T03:32:20.363Z,10.10
2018-12-13T03:33:20.446Z,10.50
2018-12-13T03:34:20.535Z,10.00
2018-12-13T03:35:20.622Z,10.60
2018-12-13T03:36:20.709Z,10.50
2018-12-13T03:37:21.133Z,10.50
2018-12-13T03:38:20.884Z,10.10
2018-12-13T03:39:20.970Z,11.30
2018-12-13T03:40:21.057Z,10.70
2018-12-13T03:41:21.224Z,11.10
2018-12-13T03:42:21.228Z,10.40
2018-12-13T03:43:21.315Z,11.00
2018-12-13T03:44:21.403Z,11.00
2018-12-13T03:45:21.486Z,11.20
2018-12-13T03:46:21.581Z,11.10
2018-12-13T03:47:21.682Z,11.10
2018-12-13T03:48:21.754Z,11.20
2018-12-13T03:49:21.840Z,10.90
2018-12-13T03:50:21.929Z,10.70
2018-12-13T03:51:22.017Z,10.00
2018-12-13T03:52:22.105Z,10.20
2018-12-13T03:53:22.191Z,11.20
2018-12-13T03:54:22.279Z,10.80
2018-12-13T03:55:22.364Z,11.10
2018-12-13T03:56:22.450Z,11.10
2018-12-13T03:57:22.542Z,10.30
2018-12-13T03:58:22.622Z,10.80
2018-12-13T03:59:22.714Z,11.00
2018-12-13T04:00:22.817Z,10.40
2018-12-13T04:01:22.887Z,10.00
2018-12-13T04:02:22.969Z,10.80
2018-12-13T04:03:23.079Z,11.10
2018-12-13T04:04:23.165Z,10.20
2018-12-13T04:05:23.252Z,10.20
2018-12-13T04:06:23.346Z,9.10
2018-12-13T04:07:27.719Z,10.10
2018-12-13T04:08:23.509Z,9.60
2018-12-13T04:09:23.602Z,10.20
2018-12-13T04:10:23.715Z,10.90
2018-12-13T04:11:23.776Z,9.60
2018-12-13T04:12:23.864Z,10.10
2018-12-13T04:13:23.955Z,9.50
2018-12-13T04:14:24.043Z,9.90
2018-12-13T04:15:24.126Z,9.70
2018-12-13T04:16:24.212Z,9.50
2018-12-13T04:17:24.296Z,9.90
2018-12-13T04:18:24.388Z,9.90
2018-12-13T04:19:24.472Z,10.20
2018-12-13T04:20:24.560Z,9.10
2018-12-13T04:21:24.659Z,10.60
2018-12-13T04:22:24.731Z,9.80
2018-12-13T04:23:24.812Z,9.80
2018-12-13T04:24:24.903Z,9.70
2018-12-13T04:25:24.990Z,10.00
2018-12-13T04:26:25.079Z,10.10
2018-12-13T04:27:25.166Z,10.20
2018-12-13T04:28:25.245Z,9.60
2018-12-13T04:29:25.334Z,10.10
2018-12-13T04:30:25.420Z,8.50
2018-12-13T04:31:25.506Z,8.50
2018-12-13T04:32:25.593Z,9.70
2018-12-13T04:33:25.678Z,9.20
2018-12-13T04:34:25.760Z,8.70
2018-12-13T04:35:25.850Z,8.90
2018-12-13T04:36:25.935Z,9.30
2018-12-13T04:37:26.022Z,8.90
2018-12-13T04:38:26.107Z,9.10
2018-12-13T04:39:26.195Z,9.30
2018-12-13T04:40:26.275Z,8.40
2018-12-13T04:41:26.369Z,9.40
2018-12-13T04:42:26.509Z,9.00
2018-12-13T04:43:26.596Z,9.00
2018-12-13T04:44:26.684Z,9.70
2018-12-13T04:45:26.769Z,8.70
2018-12-13T04:46:26.861Z,8.60
2018-12-13T04:47:26.957Z,8.70
2018-12-13T04:48:27.093Z,9.20
2018-12-13T04:49:27.116Z,8.50
2018-12-13T04:50:27.212Z,8.20
2018-12-13T04:51:27.294Z,8.20
2018-12-13T04:52:27.380Z,7.80
2018-12-13T04:53:27.464Z,8.20
2018-12-13T04:54:27.552Z,8.10
2018-12-13T04:55:27.638Z,8.30
2018-12-13T04:56:27.727Z,8.50
2018-12-13T04:57:27.812Z,8.20
2018-12-13T04:58:27.896Z,8.40
2018-12-13T04:59:27.980Z,9.00
2018-12-13T05:00:28.067Z,8.20
2018-12-13T05:01:28.151Z,8.20
2018-12-13T05:02:28.237Z,8.50
2018-12-13T05:03:28.328Z,8.80
2018-12-13T05:04:28.415Z,8.50
2018-12-13T05:05:28.499Z,9.20
2018-12-13T05:06:28.585Z,8.90
2018-12-13T05:07:28.674Z,8.60
2018-12-13T05:08:28.761Z,8.20
2018-12-13T05:09:28.848Z,8.10
2018-12-13T05:10:28.932Z,8.70
2018-12-13T05:11:29.019Z,8.40
2018-12-13T05:12:29.107Z,8.60
2018-12-13T05:13:29.192Z,8.20
2018-12-13T05:14:29.275Z,8.40
2018-12-13T05:15:29.364Z,8.50
2018-12-13T05:16:29.455Z,8.50
2018-12-13T05:17:29.535Z,8.60
2018-12-13T05:18:29.627Z,8.20
2018-12-13T05:19:29.727Z,8.60
2018-12-13T05:20:29.801Z,8.90
2018-12-13T05:21:29.891Z,8.60
2018-12-13T05:22:29.978Z,7.90
2018-12-13T05:23:30.085Z,7.80
2018-12-13T05:24:30.146Z,9.80
2018-12-13T05:25:30.237Z,9.30
2018-12-13T05:26:30.326Z,9.10
2018-12-13T05:27:30.410Z,8.80
2018-12-13T05:28:30.496Z,9.30
2018-12-13T05:29:30.588Z,9.30
2018-12-13T05:30:30.675Z,9.40
2018-12-13T05:31:30.758Z,9.30
2018-12-13T05:32:30.842Z,9.80
2018-12-13T05:33:30.935Z,9.00
2018-12-13T05:34:31.022Z,9.30
2018-12-13T05:35:31.108Z,9.10
2018-12-13T05:36:31.196Z,9.90
2018-12-13T05:37:31.284Z,9.20
2018-12-13T05:38:31.373Z,9.90
2018-12-13T05:39:31.461Z,9.70
2018-12-13T05:40:31.548Z,9.40
2018-12-13T05:41:31.641Z,9.40
2018-12-13T05:42:31.727Z,10.40
2018-12-13T05:43:31.867Z,9.00
2018-12-13T05:44:31.906Z,8.90
2018-12-13T05:45:31.995Z,9.40
2018-12-13T05:46:32.084Z,9.20
2018-12-13T05:47:32.170Z,9.30
2018-12-13T05:48:32.255Z,9.30
2018-12-13T05:49:32.344Z,9.80
2018-12-13T05:50:32.431Z,9.70
2018-12-13T05:51:32.519Z,9.80
2018-12-13T05:52:32.604Z,10.20
2018-12-13T05:53:32.694Z,9.90
2018-12-13T05:54:32.787Z,10.50
2018-12-13T05:55:32.874Z,10.20
2018-12-13T05:56:32.959Z,9.90
2018-12-13T05:57:33.047Z,10.00
2018-12-13T05:58:33.137Z,10.10
2018-12-13T05:59:33.224Z,10.10
2018-12-13T06:00:33.303Z,9.60
2018-12-13T06:01:33.374Z,10.10
2018-12-13T06:02:33.458Z,9.10
2018-12-13T06:03:33.545Z,9.60
2018-12-13T06:04:33.633Z,9.80
2018-12-13T06:05:33.720Z,8.90
2018-12-13T06:06:33.804Z,9.50
2018-12-13T06:07:33.890Z,10.00
2018-12-13T06:08:33.976Z,10.20
2018-12-13T06:09:34.066Z,10.00
2018-12-13T06:10:34.150Z,10.20
2018-12-13T06:11:34.249Z,10.40
2018-12-13T06:12:34.325Z,11.00
2018-12-13T06:13:34.412Z,10.00
2018-12-13T06:14:34.500Z,10.40
2018-12-13T06:15:34.589Z,10.00
2018-12-13T06:16:34.677Z,10.60
2018-12-13T06:17:34.765Z,10.90
2018-12-13T06:18:34.854Z,9.10
2018-12-13T06:19:34.940Z,10.60
2018-12-13T06:20:35.028Z,10.10
2018-12-13T06:21:37.049Z,10.00
2018-12-13T06:22:35.204Z,9.90
2018-12-13T06:23:35.296Z,10.00
2018-12-13T06:24:35.382Z,10.30
2018-12-13T06:25:35.480Z,10.50
2018-12-13T06:26:35.561Z,11.00
2018-12-13T06:27:35.650Z,11.20
2018-12-13T06:28:35.745Z,10.70
2018-12-13T06:29:41.665Z,10.90
2018-12-13T06:30:35.928Z,10.70
2018-12-13T06:31:36.170Z,10.80
2018-12-13T06:32:44.792Z,11.90
2018-12-13T06:33:36.257Z,11.50
2018-12-13T06:34:36.344Z,10.50
2018-12-13T06:35:36.433Z,10.50
2018-12-13T06:36:36.517Z,11.40
2018-12-13T06:37:36.638Z,10.70
2018-12-13T06:38:36.697Z,10.90
2018-12-13T06:39:36.782Z,10.00
2018-12-13T06:40:36.870Z,10.30
2018-12-13T06:41:36.957Z,10.60
2018-12-13T06:42:37.044Z,10.70
2018-12-13T06:43:37.136Z,11.30
2018-12-13T06:44:37.221Z,11.30
2018-12-13T06:45:37.311Z,12.10
2018-12-13T06:46:37.396Z,11.90
2018-12-13T06:47:37.488Z,11.00
2018-12-13T06:48:37.572Z,11.10
2018-12-13T06:49:37.666Z,11.40
2018-12-13T06:50:37.753Z,11.00
2018-12-13T06:51:37.842Z,11.90
2018-12-13T06:52:37.927Z,11.50
2018-12-13T06:53:38.014Z,11.30
2018-12-13T06:54:38.104Z,11.60
2018-12-13T06:55:38.200Z,11.70
2018-12-13T06:56:38.281Z,11.60
2018-12-13T06:57:38.365Z,11.50
2018-12-13T06:58:38.452Z,11.60
2018-12-13T06:59:38.539Z,11.60
2018-12-13T07:00:38.627Z,11.10
2018-12-13T07:01:38.715Z,12.00
2018-12-13T07:02:38.803Z,11.90
2018-12-13T07:03:38.889Z,12.30
2018-12-13T07:04:38.975Z,11.00
2018-12-13T07:05:39.063Z,11.30
2018-12-13T07:06:39.152Z,11.10
2018-12-13T07:07:39.242Z,10.70
2018-12-13T07:08:39.325Z,10.40
2018-12-13T07:09:39.414Z,11.00
2018-12-13T07:10:39.499Z,10.40
2018-12-13T07:11:39.590Z,10.30
2018-12-13T07:12:39.725Z,10.70
2018-12-13T07:13:39.763Z,10.50
2018-12-13T07:14:39.847Z,11.20
2018-12-13T07:15:39.937Z,11.10
2018-12-13T07:16:40.025Z,12.00
2018-12-13T07:17:40.111Z,11.00
2018-12-13T07:18:40.199Z,11.30
2018-12-13T07:19:40.287Z,11.00
2018-12-13T07:20:40.374Z,11.30
2018-12-13T07:21:40.459Z,9.90
2018-12-13T07:22:40.546Z,11.40
2018-12-13T07:23:40.630Z,10.80
2018-12-13T07:24:40.719Z,10.30
2018-12-13T07:25:40.804Z,11.10
2018-12-13T07:26:40.891Z,11.10
2018-12-13T07:27:40.983Z,10.60
2018-12-13T07:28:41.070Z,10.90
2018-12-13T07:29:41.157Z,9.80
2018-12-13T07:30:41.244Z,10.40
2018-12-13T07:31:41.343Z,10.80
2018-12-13T07:32:41.434Z,10.10
2018-12-13T07:33:41.523Z,10.50
2018-12-13T07:34:41.607Z,9.90
2018-12-13T07:35:41.695Z,10.50
2018-12-13T07:36:41.777Z,10.80
2018-12-13T07:37:41.862Z,10.90
2018-12-13T07:38:41.949Z,11.20
2018-12-13T07:39:42.036Z,11.30
2018-12-13T07:40:42.124Z,10.70
2018-12-13T07:41:42.209Z,11.00
2018-12-13T07:42:42.296Z,11.10
2018-12-13T07:43:42.384Z,10.50
2018-12-13T07:44:42.473Z,10.40
2018-12-13T07:45:42.592Z,10.50
2018-12-13T07:46:42.651Z,10.30
2018-12-13T07:47:42.737Z,10.60
2018-12-13T07:48:42.821Z,10.60
2018-12-13T07:49:42.907Z,10.80
2018-12-13T07:50:42.998Z,10.70
2018-12-13T07:51:43.083Z,10.90
2018-12-13T07:52:43.170Z,11.20
2018-12-13T07:53:43.259Z,11.30
2018-12-13T07:54:43.349Z,11.30
2018-12-13T07:55:43.433Z,10.80
2018-12-13T07:56:43.521Z,11.40
2018-12-13T07:57:43.605Z,11.60
2018-12-13T07:58:43.691Z,11.80
2018-12-13T07:59:43.777Z,11.70
2018-12-13T08:00:43.863Z,12.60
2018-12-13T08:01:43.951Z,12.70
2018-12-13T08:02:44.041Z,12.90
2018-12-13T08:03:44.120Z,12.10
2018-12-13T08:04:44.210Z,12.40
2018-12-13T08:05:44.290Z,12.70
2018-12-13T08:06:44.378Z,13.00
2018-12-13T08:07:44.468Z,12.30
2018-12-13T08:08:44.554Z,12.30
2018-12-13T08:09:44.641Z,12.40
2018-12-13T08:10:44.730Z,12.70
2018-12-13T08:11:44.818Z,12.80
2018-12-13T08:12:44.904Z,12.50
2018-12-13T08:13:44.990Z,12.90
2018-12-13T08:14:45.073Z,12.80
2018-12-13T08:15:45.160Z,13.40
2018-12-13T08:16:45.246Z,12.20
2018-12-13T08:17:46.619Z,12.00
2018-12-13T08:18:45.422Z,12.20
2018-12-13T08:19:45.513Z,12.40
2018-12-13T08:20:45.597Z,12.90
2018-12-13T08:21:45.683Z,13.20
2018-12-13T08:22:45.772Z,13.00
2018-12-13T08:23:45.859Z,13.00
2018-12-13T08:24:45.943Z,13.10
2018-12-13T08:25:46.034Z,12.60
2018-12-13T08:26:46.119Z,13.60
2018-12-13T08:27:46.227Z,13.20
2018-12-13T08:28:46.313Z,12.40
2018-12-13T08:29:46.399Z,13.00
2018-12-13T08:30:46.488Z,12.70
2018-12-13T08:31:46.573Z,13.30
2018-12-13T08:32:46.662Z,12.30
2018-12-13T08:33:46.755Z,13.50
2018-12-13T08:34:46.840Z,13.10
2018-12-13T08:35:46.928Z,12.30
2018-12-13T08:36:47.014Z,12.10
2018-12-13T08:37:47.106Z,12.60
2018-12-13T08:38:47.191Z,11.60
2018-12-13T08:39:47.284Z,11.10
2018-12-13T08:40:47.366Z,13.60
2018-12-13T08:41:47.448Z,12.90
2018-12-13T08:42:47.535Z,12.80
2018-12-13T08:43:47.624Z,11.50
2018-12-13T08:44:47.724Z,12.10
2018-12-13T08:45:47.800Z,11.90
2018-12-13T08:46:47.884Z,12.80
2018-12-13T08:47:47.969Z,12.60
2018-12-13T08:48:48.055Z,12.40
2018-12-13T08:49:48.144Z,12.90
2018-12-13T08:50:48.230Z,13.10
2018-12-13T08:51:48.318Z,12.20
2018-12-13T08:52:48.403Z,12.60
2018-12-13T08:53:48.489Z,12.10
2018-12-13T08:54:48.575Z,12.00
2018-12-13T08:55:48.663Z,12.80
2018-12-13T08:56:48.750Z,12.80
2018-12-13T08:57:48.836Z,12.60
2018-12-13T08:58:48.915Z,12.50
2018-12-13T08:59:49.000Z,12.30
2018-12-13T09:00:49.087Z,11.90
2018-12-13T09:01:49.173Z,12.10
2018-12-13T09:02:49.262Z,12.00
2018-12-13T09:03:49.352Z,12.00
2018-12-13T09:04:49.438Z,12.00
2018-12-13T09:05:49.527Z,12.40
2018-12-13T09:06:49.613Z,11.80
2018-12-13T09:07:49.701Z,11.70
2018-12-13T09:08:49.788Z,11.70
2018-12-13T09:09:49.875Z,12.10
2018-12-13T09:10:49.963Z,12.50
2018-12-13T09:11:50.048Z,11.80
2018-12-13T09:12:50.135Z,12.30
2018-12-13T09:13:50.222Z,11.50
2018-12-13T09:14:50.310Z,12.00
2018-12-13T09:15:50.400Z,12.10
2018-12-13T09:16:50.487Z,11.90
2018-12-13T09:17:50.573Z,12.20
2018-12-13T09:18:50.674Z,12.00
2018-12-13T09:19:50.750Z,12.00
2018-12-13T09:20:50.836Z,12.40
2018-12-13T09:21:50.924Z,11.80
2018-12-13T09:22:51.022Z,11.80
2018-12-13T09:23:51.110Z,11.90
2018-12-13T09:24:51.196Z,12.20
2018-12-13T09:25:51.286Z,12.40
2018-12-13T09:26:51.376Z,12.10
2018-12-13T09:27:51.462Z,12.00
2018-12-13T09:28:51.550Z,12.20
2018-12-13T09:29:51.640Z,12.40
2018-12-13T09:30:51.728Z,12.40
2018-12-13T09:31:51.816Z,12.50
2018-12-13T09:32:51.905Z,12.00
2018-12-13T09:33:51.993Z,12.30
2018-12-13T09:34:52.081Z,11.90
2018-12-13T09:35:52.170Z,12.40
2018-12-13T09:36:52.257Z,12.10
2018-12-13T09:37:52.344Z,10.90
2018-12-13T09:38:52.431Z,12.60
2018-12-13T09:39:52.519Z,12.50
2018-12-13T09:40:52.611Z,12.20
2018-12-13T09:41:52.684Z,12.30
2018-12-13T09:42:52.772Z,11.70
2018-12-13T09:43:52.859Z,11.90
2018-12-13T09:44:52.948Z,13.00
2018-12-13T09:45:53.117Z,12.00
2018-12-13T09:46:53.122Z,12.40
2018-12-13T09:47:53.260Z,12.90
2018-12-13T09:48:53.349Z,12.60
2018-12-13T09:49:53.437Z,12.20
2018-12-13T09:50:53.526Z,12.30
2018-12-13T09:51:53.614Z,12.00
2018-12-13T09:52:53.704Z,12.40
2018-12-13T09:53:53.791Z,11.70
2018-12-13T09:54:53.880Z,12.20
2018-12-13T09:55:53.967Z,11.50
2018-12-13T09:56:54.059Z,12.30
2018-12-13T09:57:54.147Z,12.20
2018-12-13T09:58:54.231Z,12.10
2018-12-13T09:59:54.318Z,12.90
2018-12-13T10:00:54.404Z,12.50
2018-12-13T10:01:54.491Z,12.40
2018-12-13T10:02:54.588Z,11.90
2018-12-13T10:03:54.668Z,12.20
2018-12-13T10:04:54.843Z,11.70
2018-12-13T10:05:54.845Z,12.90
2018-12-13T10:06:54.934Z,11.60
2018-12-13T10:07:55.032Z,12.20
2018-12-13T10:08:55.115Z,12.40
2018-12-13T10:09:55.198Z,11.70
2018-12-13T10:10:55.291Z,11.90
2018-12-13T10:11:55.377Z,11.70
2018-12-13T10:12:55.469Z,11.60
2018-12-13T10:13:55.553Z,11.60
2018-12-13T10:14:55.641Z,12.40
2018-12-13T10:15:55.733Z,11.60
2018-12-13T10:16:55.818Z,11.60
2018-12-13T10:17:55.910Z,12.10
2018-12-13T10:18:56.015Z,12.20
2018-12-13T10:19:56.106Z,12.10
2018-12-13T10:20:56.192Z,12.40
2018-12-13T10:21:56.277Z,12.50
2018-12-13T10:22:56.370Z,11.50
2018-12-13T10:23:56.453Z,12.30
2018-12-13T10:24:56.543Z,11.90
2018-12-13T10:25:59.519Z,12.70
2018-12-13T10:26:56.720Z,12.60
2018-12-13T10:27:56.811Z,11.80
2018-12-13T10:28:56.903Z,12.60
2018-12-13T10:29:56.987Z,12.30
2018-12-13T10:30:57.074Z,11.90
2018-12-13T10:31:57.162Z,11.90
2018-12-13T10:32:57.249Z,12.00
2018-12-13T10:33:57.337Z,11.90
2018-12-13T10:34:57.428Z,12.80
2018-12-13T10:35:57.518Z,12.70
2018-12-13T10:36:57.607Z,12.10
2018-12-13T10:37:57.698Z,11.70
2018-12-13T10:38:57.786Z,10.50
2018-12-13T10:39:57.875Z,11.20
2018-12-13T10:40:57.960Z,12.00
2018-12-13T10:41:58.048Z,11.80
2018-12-13T10:42:58.139Z,11.80
2018-12-13T10:43:58.227Z,11.80
2018-12-13T10:44:58.316Z,11.90
2018-12-13T10:45:58.404Z,11.70
2018-12-13T10:46:58.492Z,12.30
2018-12-13T10:47:58.577Z,11.60
2018-12-13T10:48:58.667Z,12.10
2018-12-13T10:49:58.761Z,11.80
2018-12-13T10:50:58.851Z,11.70
2018-12-13T10:51:58.941Z,11.40
2018-12-13T10:52:59.029Z,11.60
2018-12-13T10:53:59.118Z,11.80
2018-12-13T10:54:59.207Z,11.40
2018-12-13T10:55:59.296Z,11.30
2018-12-13T10:56:59.385Z,11.90
2018-12-13T10:57:59.471Z,12.10
2018-12-13T10:58:59.561Z,11.20
2018-12-13T10:59:59.649Z,11.60
2018-12-13T11:00:59.738Z,11.40
2018-12-13T11:01:59.825Z,12.40
2018-12-13T11:02:59.911Z,11.70
2018-12-13T11:03:59.999Z,12.30
2018-12-13T11:05:00.088Z,11.60
2018-12-13T11:06:00.175Z,12.00
2018-12-13T11:07:00.264Z,11.10
2018-12-13T11:08:00.353Z,12.10
2018-12-13T11:09:00.441Z,11.90
2018-12-13T11:10:00.529Z,11.70
2018-12-13T11:11:00.618Z,12.00
2018-12-13T11:12:00.705Z,12.20
2018-12-13T11:13:00.795Z,11.90
2018-12-13T11:14:00.885Z,11.70
2018-12-13T11:15:01.007Z,11.60
2018-12-13T11:16:01.060Z,10.70
2018-12-13T11:17:01.219Z,10.50
2018-12-13T11:18:01.227Z,11.30
2018-12-13T11:19:01.314Z,10.80
2018-12-13T11:20:01.403Z,10.50
2018-12-13T11:21:01.492Z,10.60
2018-12-13T11:22:01.572Z,10.40
2018-12-13T11:23:01.682Z,10.80
2018-12-13T11:24:01.744Z,11.00
2018-12-13T11:25:01.864Z,11.20
2018-12-13T11:26:01.921Z,11.10
2018-12-13T11:27:02.025Z,10.30
2018-12-13T11:28:02.114Z,10.90
2018-12-13T11:29:02.202Z,11.10
2018-12-13T11:30:02.293Z,10.50
2018-12-13T11:31:02.377Z,11.40
2018-12-13T11:32:02.466Z,11.00
2018-12-13T11:33:02.555Z,11.10
2018-12-13T11:34:02.645Z,11.50
2018-12-13T11:35:02.733Z,11.50
2018-12-13T11:36:02.821Z,11.40
2018-12-13T11:37:02.911Z,10.30
2018-12-13T11:38:03.003Z,10.90
2018-12-13T11:39:05.777Z,10.80
2018-12-13T11:40:03.176Z,10.80
2018-12-13T11:41:03.263Z,11.60
2018-12-13T11:42:03.351Z,11.00
2018-12-13T11:43:03.515Z,11.70
2018-12-13T11:44:03.530Z,11.30
2018-12-13T11:45:03.614Z,11.60
2018-12-13T11:46:03.692Z,11.50
2018-12-13T11:47:03.784Z,11.10
2018-12-13T11:48:03.873Z,11.30
2018-12-13T11:49:03.960Z,11.80
2018-12-13T11:50:04.050Z,10.70
2018-12-13T11:51:04.137Z,11.20
2018-12-13T11:52:04.228Z,11.30
2018-12-13T11:53:04.312Z,11.20
2018-12-13T11:54:04.403Z,11.50
2018-12-13T11:55:04.490Z,10.00
2018-12-13T11:56:04.581Z,10.20
2018-12-13T11:57:04.670Z,11.50
2018-12-13T11:58:04.782Z,11.80
2018-12-13T11:59:04.867Z,11.50
2018-12-13T12:00:04.956Z,11.30
2018-12-13T12:01:05.047Z,11.50
2018-12-13T12:02:05.136Z,12.00
2018-12-13T12:03:05.229Z,12.10
2018-12-13T12:04:05.315Z,13.00
2018-12-13T12:05:05.404Z,11.50
2018-12-13T12:06:05.490Z,11.40
2018-12-13T12:07:05.580Z,11.70
2018-12-13T12:08:05.666Z,12.30
2018-12-13T12:09:12.040Z,12.60
2018-12-13T12:10:05.846Z,12.00
2018-12-13T12:11:05.959Z,12.20
2018-12-13T12:12:06.046Z,11.50
2018-12-13T12:13:06.136Z,11.70
2018-12-13T12:14:06.223Z,11.20
2018-12-13T12:15:06.312Z,13.10
2018-12-13T12:16:06.393Z,12.10
2018-12-13T12:17:06.490Z,12.10
2018-12-13T12:18:06.580Z,11.70
2018-12-13T12:19:06.665Z,12.00
2018-12-13T12:20:06.757Z,12.20
2018-12-13T12:21:06.845Z,11.40
2018-12-13T12:22:06.934Z,12.60
2018-12-13T12:23:07.027Z,12.00
2018-12-13T12:24:07.115Z,12.90
2018-12-13T12:25:07.199Z,12.10
2018-12-13T12:26:07.287Z,12.80
2018-12-13T12:27:08.595Z,11.90
2018-12-13T12:28:07.467Z,12.00
2018-12-13T12:29:07.555Z,13.20
2018-12-13T12:30:07.642Z,12.20
2018-12-13T12:31:07.732Z,13.70
2018-12-13T12:32:07.821Z,12.70
2018-12-13T12:33:07.907Z,12.70
2018-12-13T12:34:07.997Z,12.70
2018-12-13T12:35:08.091Z,12.80
2018-12-13T12:36:08.170Z,12.30
2018-12-13T12:37:08.260Z,12.40
2018-12-13T12:38:08.349Z,13.30
2018-12-13T12:39:08.442Z,12.60
2018-12-13T12:40:08.526Z,12.90
2018-12-13T12:41:08.613Z,13.60
2018-12-13T12:42:08.716Z,14.30
2018-12-13T12:43:08.801Z,13.50
2018-12-13T12:44:08.907Z,13.20
2018-12-13T12:45:08.997Z,13.40
2018-12-13T12:46:09.084Z,14.10
2018-12-13T12:47:09.175Z,13.80
2018-12-13T12:48:09.262Z,15.10
2018-12-13T12:49:09.350Z,14.90
2018-12-13T12:50:09.443Z,15.10
2018-12-13T12:51:09.528Z,15.10
2018-12-13T12:52:09.617Z,14.30
2018-12-13T12:53:09.706Z,15.00
2018-12-13T12:54:09.795Z,14.40
2018-12-13T12:55:09.884Z,14.90
2018-12-13T12:56:09.972Z,14.90
2018-12-13T12:57:10.062Z,13.80
2018-12-13T12:58:10.150Z,14.60
2018-12-13T12:59:10.238Z,14.70
2018-12-13T13:00:10.325Z,14.50
2018-12-13T13:01:10.416Z,13.80
2018-12-13T13:02:10.501Z,14.10